sensor_id;sensor_type;location;lat;lon;timestamp;temperature;humidity
39525;DHT22;25203;50.754;6.978;2023-02-18T00:00:47;10.90;99.90
39525;DHT22;25203;50.754;6.978;2023-02-18T00:02:48;10.90;99.90
39525;DHT22;25203;50.754;6.978;2023-02-18T00:04:49;10.90;99.90
39525;DHT22;25203;50.754;6.978;2023-02-18T00:06:49;10.90;99.90
39525;DHT22;25203;50.754;6.978;2023-02-18T00:08:51;10.90;99.90
39525;DHT22;25203;50.754;6.978;2023-02-18T00:10:52;10.90;99.90
39525;DHT22;25203;50.754;6.978;2023-02-18T00:12:53;10.90;99.90
39525;DHT22;25203;50.754;6.978;2023-02-18T00:14:53;10.90;99.90
39525;DHT22;25203;50.754;6.978;2023-02-18T00:16:54;10.90;99.90
39525;DHT22;25203;50.754;6.978;2023-02-18T00:19:00;10.90;99.90
39525;DHT22;25203;50.754;6.978;2023-02-18T00:21:06;10.90;99.90
39525;DHT22;25203;50.754;6.978;2023-02-18T00:23:07;10.90;99.90
39525;DHT22;25203;50.754;6.978;2023-02-18T00:25:08;10.90;99.90
39525;DHT22;25203;50.754;6.978;2023-02-18T00:27:13;10.90;99.90
39525;DHT22;25203;50.754;6.978;2023-02-18T00:29:13;10.90;99.90
39525;DHT22;25203;50.754;6.978;2023-02-18T00:31:18;10.90;99.90
39525;DHT22;25203;50.754;6.978;2023-02-18T00:33:18;10.90;99.90
39525;DHT22;25203;50.754;6.978;2023-02-18T00:35:19;10.90;99.90
39525;DHT22;25203;50.754;6.978;2023-02-18T00:37:19;10.90;99.90
39525;DHT22;25203;50.754;6.978;2023-02-18T00:39:20;10.80;99.90
39525;DHT22;25203;50.754;6.978;2023-02-18T00:41:22;10.80;99.90
39525;DHT22;25203;50.754;6.978;2023-02-18T00:43:23;10.80;99.90
39525;DHT22;25203;50.754;6.978;2023-02-18T00:45:24;10.80;99.90
39525;DHT22;25203;50.754;6.978;2023-02-18T00:47:24;10.80;99.90
39525;DHT22;25203;50.754;6.978;2023-02-18T00:49:25;10.80;99.90
39525;DHT22;25203;50.754;6.978;2023-02-18T00:51:26;10.90;99.90
39525;DHT22;25203;50.754;6.978;2023-02-18T00:53:28;10.90;99.90
39525;DHT22;25203;50.754;6.978;2023-02-18T00:55:28;10.80;99.90
39525;DHT22;25203;50.754;6.978;2023-02-18T00:57:29;10.80;99.90
39525;DHT22;25203;50.754;6.978;2023-02-18T00:59:30;10.90;99.90
39525;DHT22;25203;50.754;6.978;2023-02-18T01:01:30;10.90;99.90
39525;DHT22;25203;50.754;6.978;2023-02-18T01:03:31;10.90;99.90
39525;DHT22;25203;50.754;6.978;2023-02-18T01:05:32;10.90;99.90
39525;DHT22;25203;50.754;6.978;2023-02-18T01:07:32;10.90;99.90
39525;DHT22;25203;50.754;6.978;2023-02-18T01:09:33;10.90;99.90
39525;DHT22;25203;50.754;6.978;2023-02-18T01:11:34;10.90;99.90
39525;DHT22;25203;50.754;6.978;2023-02-18T01:13:34;10.90;99.90
39525;DHT22;25203;50.754;6.978;2023-02-18T01:15:35;10.90;99.90
39525;DHT22;25203;50.754;6.978;2023-02-18T01:17:35;10.90;99.90
39525;DHT22;25203;50.754;6.978;2023-02-18T01:19:36;10.90;99.90
39525;DHT22;25203;50.754;6.978;2023-02-18T01:21:37;10.90;99.90
39525;DHT22;25203;50.754;6.978;2023-02-18T01:23:38;10.90;99.90
39525;DHT22;25203;50.754;6.978;2023-02-18T01:25:40;10.80;99.90
39525;DHT22;25203;50.754;6.978;2023-02-18T01:27:40;10.80;99.90
39525;DHT22;25203;50.754;6.978;2023-02-18T01:29:41;10.90;99.90
39525;DHT22;25203;50.754;6.978;2023-02-18T01:31:41;10.90;99.90
39525;DHT22;25203;50.754;6.978;2023-02-18T01:33:42;10.80;99.90
39525;DHT22;25203;50.754;6.978;2023-02-18T01:35:43;10.80;99.90
39525;DHT22;25203;50.754;6.978;2023-02-18T01:37:44;10.80;99.90
39525;DHT22;25203;50.754;6.978;2023-02-18T01:39:45;10.70;99.90
39525;DHT22;25203;50.754;6.978;2023-02-18T01:41:45;10.70;99.90
39525;DHT22;25203;50.754;6.978;2023-02-18T01:43:46;10.70;99.90
39525;DHT22;25203;50.754;6.978;2023-02-18T01:46:06;10.80;99.90
39525;DHT22;25203;50.754;6.978;2023-02-18T01:50:22;10.70;99.90
39525;DHT22;25203;50.754;6.978;2023-02-18T01:52:25;10.60;99.90
39525;DHT22;25203;50.754;6.978;2023-02-18T01:54:30;10.60;99.90
39525;DHT22;25203;50.754;6.978;2023-02-18T01:58:54;10.50;99.90
39525;DHT22;25203;50.754;6.978;2023-02-18T02:00:55;10.50;99.90
39525;DHT22;25203;50.754;6.978;2023-02-18T02:02:56;10.50;99.90
39525;DHT22;25203;50.754;6.978;2023-02-18T02:04:57;10.50;99.90
39525;DHT22;25203;50.754;6.978;2023-02-18T02:06:57;10.50;99.90
39525;DHT22;25203;50.754;6.978;2023-02-18T02:09:00;10.50;99.90
39525;DHT22;25203;50.754;6.978;2023-02-18T02:11:08;10.50;99.90
39525;DHT22;25203;50.754;6.978;2023-02-18T02:15:44;10.50;99.90
39525;DHT22;25203;50.754;6.978;2023-02-18T02:27:14;10.50;99.90
39525;DHT22;25203;50.754;6.978;2023-02-18T02:32:09;10.50;99.90
39525;DHT22;25203;50.754;6.978;2023-02-18T02:39:39;10.50;99.90
39525;DHT22;25203;50.754;6.978;2023-02-18T02:42:14;10.50;99.90
39525;DHT22;25203;50.754;6.978;2023-02-18T02:45:09;10.50;99.90
39525;DHT22;25203;50.754;6.978;2023-02-18T02:46:46;10.50;99.90
39525;DHT22;25203;50.754;6.978;2023-02-18T02:49:33;10.50;99.90
39525;DHT22;25203;50.754;6.978;2023-02-18T02:51:47;10.50;99.90
39525;DHT22;25203;50.754;6.978;2023-02-18T02:53:49;10.50;99.90
39525;DHT22;25203;50.754;6.978;2023-02-18T02:55:50;10.50;99.90
39525;DHT22;25203;50.754;6.978;2023-02-18T02:57:52;10.50;99.90
39525;DHT22;25203;50.754;6.978;2023-02-18T03:00:06;10.50;99.90
39525;DHT22;25203;50.754;6.978;2023-02-18T03:11:34;10.70;99.90
39525;DHT22;25203;50.754;6.978;2023-02-18T03:13:55;10.70;99.90
39525;DHT22;25203;50.754;6.978;2023-02-18T03:16:16;10.70;99.90
39525;DHT22;25203;50.754;6.978;2023-02-18T03:18:32;10.80;99.90
39525;DHT22;25203;50.754;6.978;2023-02-18T03:20:48;10.80;99.90
39525;DHT22;25203;50.754;6.978;2023-02-18T03:22:51;10.90;99.90
39525;DHT22;25203;50.754;6.978;2023-02-18T03:24:55;10.90;99.90
39525;DHT22;25203;50.754;6.978;2023-02-18T03:27:15;11.00;99.90
39525;DHT22;25203;50.754;6.978;2023-02-18T03:29:17;11.00;99.90
39525;DHT22;25203;50.754;6.978;2023-02-18T03:31:20;11.00;99.90
39525;DHT22;25203;50.754;6.978;2023-02-18T03:33:26;11.00;99.90
39525;DHT22;25203;50.754;6.978;2023-02-18T03:35:27;11.00;99.90
39525;DHT22;25203;50.754;6.978;2023-02-18T03:37:31;11.00;99.90
39525;DHT22;25203;50.754;6.978;2023-02-18T03:39:35;11.10;99.90
39525;DHT22;25203;50.754;6.978;2023-02-18T03:41:36;11.10;99.90
39525;DHT22;25203;50.754;6.978;2023-02-18T03:43:39;11.10;99.90
39525;DHT22;25203;50.754;6.978;2023-02-18T03:45:40;11.10;99.90
39525;DHT22;25203;50.754;6.978;2023-02-18T03:47:40;11.10;99.90
39525;DHT22;25203;50.754;6.978;2023-02-18T03:49:41;11.20;99.90
39525;DHT22;25203;50.754;6.978;2023-02-18T03:51:42;11.20;99.90
39525;DHT22;25203;50.754;6.978;2023-02-18T03:53:43;11.20;99.90
39525;DHT22;25203;50.754;6.978;2023-02-18T03:55:43;11.20;99.90
39525;DHT22;25203;50.754;6.978;2023-02-18T03:57:44;11.20;99.90
39525;DHT22;25203;50.754;6.978;2023-02-18T03:59:45;11.30;99.90
39525;DHT22;25203;50.754;6.978;2023-02-18T04:01:45;11.20;99.90
39525;DHT22;25203;50.754;6.978;2023-02-18T04:03:46;11.20;99.90
39525;DHT22;25203;50.754;6.978;2023-02-18T04:05:46;11.30;99.90
39525;DHT22;25203;50.754;6.978;2023-02-18T04:07:47;11.30;99.90
39525;DHT22;25203;50.754;6.978;2023-02-18T04:09:48;11.30;99.90
39525;DHT22;25203;50.754;6.978;2023-02-18T04:11:48;11.30;99.90
39525;DHT22;25203;50.754;6.978;2023-02-18T04:13:49;11.30;99.90
39525;DHT22;25203;50.754;6.978;2023-02-18T04:15:50;11.30;99.90
39525;DHT22;25203;50.754;6.978;2023-02-18T04:17:51;11.30;99.90
39525;DHT22;25203;50.754;6.978;2023-02-18T04:19:51;11.30;99.90
39525;DHT22;25203;50.754;6.978;2023-02-18T04:21:52;11.30;99.90
39525;DHT22;25203;50.754;6.978;2023-02-18T04:23:52;11.30;99.90
39525;DHT22;25203;50.754;6.978;2023-02-18T04:25:53;11.30;99.90
39525;DHT22;25203;50.754;6.978;2023-02-18T04:27:54;11.30;99.90
39525;DHT22;25203;50.754;6.978;2023-02-18T04:29:54;11.30;99.90
39525;DHT22;25203;50.754;6.978;2023-02-18T04:31:55;11.20;99.90
39525;DHT22;25203;50.754;6.978;2023-02-18T04:33:56;11.20;99.90
39525;DHT22;25203;50.754;6.978;2023-02-18T04:35:57;11.20;99.90
39525;DHT22;25203;50.754;6.978;2023-02-18T04:37:57;11.20;99.90
39525;DHT22;25203;50.754;6.978;2023-02-18T04:39:58;11.20;99.90
39525;DHT22;25203;50.754;6.978;2023-02-18T04:41:58;11.20;99.90
39525;DHT22;25203;50.754;6.978;2023-02-18T04:43:59;11.20;99.90
39525;DHT22;25203;50.754;6.978;2023-02-18T04:45:59;11.20;99.90
39525;DHT22;25203;50.754;6.978;2023-02-18T04:48:00;11.20;99.90
39525;DHT22;25203;50.754;6.978;2023-02-18T04:50:01;11.30;99.90
39525;DHT22;25203;50.754;6.978;2023-02-18T04:52:02;11.30;99.90
39525;DHT22;25203;50.754;6.978;2023-02-18T04:54:03;11.30;99.90
39525;DHT22;25203;50.754;6.978;2023-02-18T04:56:04;11.30;99.90
39525;DHT22;25203;50.754;6.978;2023-02-18T04:58:04;11.30;99.90
39525;DHT22;25203;50.754;6.978;2023-02-18T05:00:07;11.30;99.90
39525;DHT22;25203;50.754;6.978;2023-02-18T05:02:08;11.30;99.90
39525;DHT22;25203;50.754;6.978;2023-02-18T05:04:09;11.30;99.90
39525;DHT22;25203;50.754;6.978;2023-02-18T05:06:09;11.30;99.90
39525;DHT22;25203;50.754;6.978;2023-02-18T05:08:10;11.30;99.90
39525;DHT22;25203;50.754;6.978;2023-02-18T05:10:16;11.30;99.90
39525;DHT22;25203;50.754;6.978;2023-02-18T05:12:17;11.30;99.90
39525;DHT22;25203;50.754;6.978;2023-02-18T05:14:18;11.30;99.90
39525;DHT22;25203;50.754;6.978;2023-02-18T05:16:18;11.30;99.90
39525;DHT22;25203;50.754;6.978;2023-02-18T05:18:19;11.30;99.90
39525;DHT22;25203;50.754;6.978;2023-02-18T05:20:19;11.40;99.90
39525;DHT22;25203;50.754;6.978;2023-02-18T05:22:20;11.40;99.90
39525;DHT22;25203;50.754;6.978;2023-02-18T05:24:21;11.40;99.90
39525;DHT22;25203;50.754;6.978;2023-02-18T05:26:21;11.40;99.90
39525;DHT22;25203;50.754;6.978;2023-02-18T05:28:22;11.40;99.90
39525;DHT22;25203;50.754;6.978;2023-02-18T05:30:23;11.30;99.90
39525;DHT22;25203;50.754;6.978;2023-02-18T05:32:25;11.30;99.90
39525;DHT22;25203;50.754;6.978;2023-02-18T05:34:25;11.20;99.90
39525;DHT22;25203;50.754;6.978;2023-02-18T05:36:26;11.30;99.90
39525;DHT22;25203;50.754;6.978;2023-02-18T05:38:26;11.20;99.90
39525;DHT22;25203;50.754;6.978;2023-02-18T05:40:27;11.30;99.90
39525;DHT22;25203;50.754;6.978;2023-02-18T05:42:28;11.20;99.90
39525;DHT22;25203;50.754;6.978;2023-02-18T05:44:29;11.30;99.90
39525;DHT22;25203;50.754;6.978;2023-02-18T05:46:29;11.30;99.90
39525;DHT22;25203;50.754;6.978;2023-02-18T05:48:30;11.30;99.90
39525;DHT22;25203;50.754;6.978;2023-02-18T05:50:31;11.20;99.90
39525;DHT22;25203;50.754;6.978;2023-02-18T05:52:31;11.20;99.90
39525;DHT22;25203;50.754;6.978;2023-02-18T05:54:33;11.20;99.90
39525;DHT22;25203;50.754;6.978;2023-02-18T05:56:33;11.30;99.90
39525;DHT22;25203;50.754;6.978;2023-02-18T05:58:34;11.30;99.90
39525;DHT22;25203;50.754;6.978;2023-02-18T06:00:34;11.20;99.90
39525;DHT22;25203;50.754;6.978;2023-02-18T06:02:36;11.20;99.90
39525;DHT22;25203;50.754;6.978;2023-02-18T06:04:37;11.20;99.90
39525;DHT22;25203;50.754;6.978;2023-02-18T06:06:38;11.20;99.90
39525;DHT22;25203;50.754;6.978;2023-02-18T06:08:39;11.20;99.90
39525;DHT22;25203;50.754;6.978;2023-02-18T06:10:40;11.10;99.90
39525;DHT22;25203;50.754;6.978;2023-02-18T06:12:40;11.10;99.90
39525;DHT22;25203;50.754;6.978;2023-02-18T06:14:41;11.10;99.90
39525;DHT22;25203;50.754;6.978;2023-02-18T06:16:42;11.10;99.90
39525;DHT22;25203;50.754;6.978;2023-02-18T06:18:42;11.20;99.90
39525;DHT22;25203;50.754;6.978;2023-02-18T06:20:43;11.20;99.90
39525;DHT22;25203;50.754;6.978;2023-02-18T06:22:44;11.20;99.90
39525;DHT22;25203;50.754;6.978;2023-02-18T06:24:44;11.20;99.90
39525;DHT22;25203;50.754;6.978;2023-02-18T06:26:45;11.20;99.90
39525;DHT22;25203;50.754;6.978;2023-02-18T06:28:46;11.20;99.90
39525;DHT22;25203;50.754;6.978;2023-02-18T06:30:46;11.20;99.90
39525;DHT22;25203;50.754;6.978;2023-02-18T06:32:47;11.20;99.90
39525;DHT22;25203;50.754;6.978;2023-02-18T06:34:48;11.20;99.90
39525;DHT22;25203;50.754;6.978;2023-02-18T06:36:48;11.10;99.90
39525;DHT22;25203;50.754;6.978;2023-02-18T06:38:49;11.10;99.90
39525;DHT22;25203;50.754;6.978;2023-02-18T06:40:49;11.10;99.90
39525;DHT22;25203;50.754;6.978;2023-02-18T06:42:50;11.10;99.90
39525;DHT22;25203;50.754;6.978;2023-02-18T06:44:51;11.10;99.90
39525;DHT22;25203;50.754;6.978;2023-02-18T06:46:51;11.10;99.90
39525;DHT22;25203;50.754;6.978;2023-02-18T06:48:52;11.10;99.90
39525;DHT22;25203;50.754;6.978;2023-02-18T06:50:52;11.10;99.90
39525;DHT22;25203;50.754;6.978;2023-02-18T06:52:53;11.10;99.90
39525;DHT22;25203;50.754;6.978;2023-02-18T06:54:53;11.10;99.90
39525;DHT22;25203;50.754;6.978;2023-02-18T06:56:54;11.10;99.90
39525;DHT22;25203;50.754;6.978;2023-02-18T06:58:54;11.10;99.90
39525;DHT22;25203;50.754;6.978;2023-02-18T07:00:55;11.00;99.90
39525;DHT22;25203;50.754;6.978;2023-02-18T07:02:56;11.00;99.90
39525;DHT22;25203;50.754;6.978;2023-02-18T07:04:56;11.10;99.90
39525;DHT22;25203;50.754;6.978;2023-02-18T07:06:57;11.10;99.90
39525;DHT22;25203;50.754;6.978;2023-02-18T07:08:57;11.10;99.90
39525;DHT22;25203;50.754;6.978;2023-02-18T07:10:58;11.10;99.90
39525;DHT22;25203;50.754;6.978;2023-02-18T07:12:59;11.10;99.90
39525;DHT22;25203;50.754;6.978;2023-02-18T07:14:59;11.10;99.90
39525;DHT22;25203;50.754;6.978;2023-02-18T07:17:00;11.10;99.90
39525;DHT22;25203;50.754;6.978;2023-02-18T07:19:00;11.10;99.90
39525;DHT22;25203;50.754;6.978;2023-02-18T07:21:01;11.20;99.90
39525;DHT22;25203;50.754;6.978;2023-02-18T07:23:02;11.20;99.90
39525;DHT22;25203;50.754;6.978;2023-02-18T07:25:02;11.10;99.90
39525;DHT22;25203;50.754;6.978;2023-02-18T07:27:03;11.20;99.90
39525;DHT22;25203;50.754;6.978;2023-02-18T07:29:04;11.20;99.90
39525;DHT22;25203;50.754;6.978;2023-02-18T07:31:04;11.10;99.90
39525;DHT22;25203;50.754;6.978;2023-02-18T07:33:05;11.10;99.90
39525;DHT22;25203;50.754;6.978;2023-02-18T07:35:06;11.10;99.90
39525;DHT22;25203;50.754;6.978;2023-02-18T07:37:07;11.10;99.90
39525;DHT22;25203;50.754;6.978;2023-02-18T07:39:11;11.10;99.90
39525;DHT22;25203;50.754;6.978;2023-02-18T07:41:20;11.10;99.90
39525;DHT22;25203;50.754;6.978;2023-02-18T07:43:22;11.10;99.90
39525;DHT22;25203;50.754;6.978;2023-02-18T07:45:22;11.10;99.90
39525;DHT22;25203;50.754;6.978;2023-02-18T07:47:23;11.10;99.90
39525;DHT22;25203;50.754;6.978;2023-02-18T07:49:24;11.10;99.90
39525;DHT22;25203;50.754;6.978;2023-02-18T07:51:24;11.10;99.90
39525;DHT22;25203;50.754;6.978;2023-02-18T07:53:25;11.10;99.90
39525;DHT22;25203;50.754;6.978;2023-02-18T07:55:26;11.10;99.90
39525;DHT22;25203;50.754;6.978;2023-02-18T07:57:48;11.10;99.90
39525;DHT22;25203;50.754;6.978;2023-02-18T08:00:00;11.10;99.90
39525;DHT22;25203;50.754;6.978;2023-02-18T08:02:00;11.10;99.90
39525;DHT22;25203;50.754;6.978;2023-02-18T08:04:01;11.10;99.90
39525;DHT22;25203;50.754;6.978;2023-02-18T08:06:03;11.10;99.90
39525;DHT22;25203;50.754;6.978;2023-02-18T08:08:04;11.10;99.90
39525;DHT22;25203;50.754;6.978;2023-02-18T08:10:05;11.10;99.90
39525;DHT22;25203;50.754;6.978;2023-02-18T08:12:06;11.00;99.90
39525;DHT22;25203;50.754;6.978;2023-02-18T08:14:07;11.00;99.90
39525;DHT22;25203;50.754;6.978;2023-02-18T08:16:09;11.00;99.90
39525;DHT22;25203;50.754;6.978;2023-02-18T08:18:21;11.00;99.90
39525;DHT22;25203;50.754;6.978;2023-02-18T08:20:22;10.80;99.90
39525;DHT22;25203;50.754;6.978;2023-02-18T08:22:22;10.80;99.90
39525;DHT22;25203;50.754;6.978;2023-02-18T08:24:23;10.80;99.90
39525;DHT22;25203;50.754;6.978;2023-02-18T08:26:23;10.80;99.90
39525;DHT22;25203;50.754;6.978;2023-02-18T08:28:24;10.80;99.90
39525;DHT22;25203;50.754;6.978;2023-02-18T08:30:25;10.80;99.90
39525;DHT22;25203;50.754;6.978;2023-02-18T08:32:27;10.80;99.90
39525;DHT22;25203;50.754;6.978;2023-02-18T08:34:28;10.80;99.90
39525;DHT22;25203;50.754;6.978;2023-02-18T08:36:29;10.70;99.90
39525;DHT22;25203;50.754;6.978;2023-02-18T08:38:30;10.60;99.90
39525;DHT22;25203;50.754;6.978;2023-02-18T08:40:30;10.60;99.90
39525;DHT22;25203;50.754;6.978;2023-02-18T08:42:31;10.50;99.90
39525;DHT22;25203;50.754;6.978;2023-02-18T08:44:32;10.40;99.90
39525;DHT22;25203;50.754;6.978;2023-02-18T08:46:32;10.20;99.90
39525;DHT22;25203;50.754;6.978;2023-02-18T08:48:33;10.10;99.90
39525;DHT22;25203;50.754;6.978;2023-02-18T08:50:34;10.00;99.90
39525;DHT22;25203;50.754;6.978;2023-02-18T08:52:34;10.00;99.90
39525;DHT22;25203;50.754;6.978;2023-02-18T08:54:35;10.00;99.90
39525;DHT22;25203;50.754;6.978;2023-02-18T08:56:35;10.10;99.90
39525;DHT22;25203;50.754;6.978;2023-02-18T08:58:36;10.20;99.90
39525;DHT22;25203;50.754;6.978;2023-02-18T09:00:38;10.30;99.90
39525;DHT22;25203;50.754;6.978;2023-02-18T09:02:39;10.40;99.90
39525;DHT22;25203;50.754;6.978;2023-02-18T09:04:39;10.50;99.90
39525;DHT22;25203;50.754;6.978;2023-02-18T09:06:40;10.50;99.90
39525;DHT22;25203;50.754;6.978;2023-02-18T09:08:41;10.60;99.90
39525;DHT22;25203;50.754;6.978;2023-02-18T09:10:41;10.60;99.90
39525;DHT22;25203;50.754;6.978;2023-02-18T09:12:42;10.60;99.90
39525;DHT22;25203;50.754;6.978;2023-02-18T09:14:42;10.60;99.90
39525;DHT22;25203;50.754;6.978;2023-02-18T09:16:43;10.60;99.90
39525;DHT22;25203;50.754;6.978;2023-02-18T09:18:44;10.60;99.90
39525;DHT22;25203;50.754;6.978;2023-02-18T09:20:45;10.60;99.90
39525;DHT22;25203;50.754;6.978;2023-02-18T09:22:46;10.60;99.90
39525;DHT22;25203;50.754;6.978;2023-02-18T09:24:47;10.70;99.90
39525;DHT22;25203;50.754;6.978;2023-02-18T09:26:47;10.60;99.90
39525;DHT22;25203;50.754;6.978;2023-02-18T09:28:49;10.70;99.90
39525;DHT22;25203;50.754;6.978;2023-02-18T09:30:49;10.70;99.90
39525;DHT22;25203;50.754;6.978;2023-02-18T09:32:50;10.70;99.90
39525;DHT22;25203;50.754;6.978;2023-02-18T09:34:51;10.70;99.90
39525;DHT22;25203;50.754;6.978;2023-02-18T09:36:51;10.70;99.90
39525;DHT22;25203;50.754;6.978;2023-02-18T09:38:53;10.70;99.90
39525;DHT22;25203;50.754;6.978;2023-02-18T09:40:53;10.70;99.90
39525;DHT22;25203;50.754;6.978;2023-02-18T09:42:57;10.70;99.90
39525;DHT22;25203;50.754;6.978;2023-02-18T09:45:05;10.80;99.90
39525;DHT22;25203;50.754;6.978;2023-02-18T09:47:13;10.80;99.90
39525;DHT22;25203;50.754;6.978;2023-02-18T09:49:18;10.80;99.90
39525;DHT22;25203;50.754;6.978;2023-02-18T09:51:19;10.90;99.90
39525;DHT22;25203;50.754;6.978;2023-02-18T09:53:21;10.90;99.90
39525;DHT22;25203;50.754;6.978;2023-02-18T09:57:40;11.10;99.90
39525;DHT22;25203;50.754;6.978;2023-02-18T09:59:42;11.30;99.90
39525;DHT22;25203;50.754;6.978;2023-02-18T10:01:45;11.50;99.90
39525;DHT22;25203;50.754;6.978;2023-02-18T10:03:46;11.50;99.90
39525;DHT22;25203;50.754;6.978;2023-02-18T10:08:14;11.30;99.90
39525;DHT22;25203;50.754;6.978;2023-02-18T10:12:34;11.10;99.90
39525;DHT22;25203;50.754;6.978;2023-02-18T10:14:34;11.10;99.90
39525;DHT22;25203;50.754;6.978;2023-02-18T10:16:35;11.10;99.90
39525;DHT22;25203;50.754;6.978;2023-02-18T10:18:41;11.00;99.90
39525;DHT22;25203;50.754;6.978;2023-02-18T10:20:42;11.00;99.90
39525;DHT22;25203;50.754;6.978;2023-02-18T10:22:43;10.90;99.90
39525;DHT22;25203;50.754;6.978;2023-02-18T10:24:59;10.90;99.90
39525;DHT22;25203;50.754;6.978;2023-02-18T10:27:04;10.90;99.90
39525;DHT22;25203;50.754;6.978;2023-02-18T10:29:14;10.80;99.90
39525;DHT22;25203;50.754;6.978;2023-02-18T10:31:19;10.80;99.90
39525;DHT22;25203;50.754;6.978;2023-02-18T10:35:57;10.80;99.90
39525;DHT22;25203;50.754;6.978;2023-02-18T10:50:37;11.00;99.90
39525;DHT22;25203;50.754;6.978;2023-02-18T10:52:43;11.00;99.90
39525;DHT22;25203;50.754;6.978;2023-02-18T10:57:04;11.10;99.90
39525;DHT22;25203;50.754;6.978;2023-02-18T11:01:16;11.10;99.90
39525;DHT22;25203;50.754;6.978;2023-02-18T11:03:23;11.20;99.90
39525;DHT22;25203;50.754;6.978;2023-02-18T11:05:26;11.20;99.90
39525;DHT22;25203;50.754;6.978;2023-02-18T11:07:34;11.30;99.90
39525;DHT22;25203;50.754;6.978;2023-02-18T11:11:38;11.20;99.90
39525;DHT22;25203;50.754;6.978;2023-02-18T11:13:39;11.10;99.90
39525;DHT22;25203;50.754;6.978;2023-02-18T11:16:00;11.10;99.90
39525;DHT22;25203;50.754;6.978;2023-02-18T11:18:34;11.10;99.90
39525;DHT22;25203;50.754;6.978;2023-02-18T11:20:37;11.00;99.90
39525;DHT22;25203;50.754;6.978;2023-02-18T11:22:37;10.90;99.90
39525;DHT22;25203;50.754;6.978;2023-02-18T11:24:40;10.70;99.90
39525;DHT22;25203;50.754;6.978;2023-02-18T11:26:47;10.50;99.90
39525;DHT22;25203;50.754;6.978;2023-02-18T11:28:49;10.50;99.90
39525;DHT22;25203;50.754;6.978;2023-02-18T11:30:57;10.40;99.90
39525;DHT22;25203;50.754;6.978;2023-02-18T11:33:03;10.30;99.90
39525;DHT22;25203;50.754;6.978;2023-02-18T11:35:05;10.30;99.90
39525;DHT22;25203;50.754;6.978;2023-02-18T11:37:09;10.30;99.90
39525;DHT22;25203;50.754;6.978;2023-02-18T11:39:22;10.30;99.90
39525;DHT22;25203;50.754;6.978;2023-02-18T11:41:34;10.30;99.90
39525;DHT22;25203;50.754;6.978;2023-02-18T11:43:36;10.40;99.90
39525;DHT22;25203;50.754;6.978;2023-02-18T11:45:41;10.40;99.90
39525;DHT22;25203;50.754;6.978;2023-02-18T11:47:41;10.50;99.90
39525;DHT22;25203;50.754;6.978;2023-02-18T11:49:57;10.60;99.90
39525;DHT22;25203;50.754;6.978;2023-02-18T11:52:22;10.60;99.90
39525;DHT22;25203;50.754;6.978;2023-02-18T11:54:26;10.60;99.90
39525;DHT22;25203;50.754;6.978;2023-02-18T11:56:32;10.60;99.90
39525;DHT22;25203;50.754;6.978;2023-02-18T11:58:40;10.60;99.90
39525;DHT22;25203;50.754;6.978;2023-02-18T12:00:45;10.50;99.90
39525;DHT22;25203;50.754;6.978;2023-02-18T12:02:47;10.50;99.90
39525;DHT22;25203;50.754;6.978;2023-02-18T12:04:51;10.50;99.90
39525;DHT22;25203;50.754;6.978;2023-02-18T12:09:28;10.50;99.90
39525;DHT22;25203;50.754;6.978;2023-02-18T12:11:39;10.40;99.90
39525;DHT22;25203;50.754;6.978;2023-02-18T12:13:51;10.40;99.90
39525;DHT22;25203;50.754;6.978;2023-02-18T12:16:08;10.40;99.90
39525;DHT22;25203;50.754;6.978;2023-02-18T12:22:44;10.30;99.90
39525;DHT22;25203;50.754;6.978;2023-02-18T12:27:31;10.30;99.90
39525;DHT22;25203;50.754;6.978;2023-02-18T12:37:02;10.60;99.90
39525;DHT22;25203;50.754;6.978;2023-02-18T12:39:59;10.70;99.90
39525;DHT22;25203;50.754;6.978;2023-02-18T12:41:40;10.70;99.90
39525;DHT22;25203;50.754;6.978;2023-02-18T12:46:58;10.70;99.90
39525;DHT22;25203;50.754;6.978;2023-02-18T12:51:43;10.60;99.90
39525;DHT22;25203;50.754;6.978;2023-02-18T13:06:06;10.70;99.90
39525;DHT22;25203;50.754;6.978;2023-02-18T13:10:47;10.70;99.90
39525;DHT22;25203;50.754;6.978;2023-02-18T13:13:14;10.70;99.90
39525;DHT22;25203;50.754;6.978;2023-02-18T13:15:24;10.70;99.90
39525;DHT22;25203;50.754;6.978;2023-02-18T13:17:31;10.60;99.90
39525;DHT22;25203;50.754;6.978;2023-02-18T13:19:49;10.70;99.90
39525;DHT22;25203;50.754;6.978;2023-02-18T13:21:53;10.70;99.90
39525;DHT22;25203;50.754;6.978;2023-02-18T13:23:59;10.80;99.90
39525;DHT22;25203;50.754;6.978;2023-02-18T13:26:02;10.80;99.90
39525;DHT22;25203;50.754;6.978;2023-02-18T13:33:05;10.90;99.90
39525;DHT22;25203;50.754;6.978;2023-02-18T13:35:19;11.00;99.90
39525;DHT22;25203;50.754;6.978;2023-02-18T13:37:32;11.00;99.90
39525;DHT22;25203;50.754;6.978;2023-02-18T13:39:36;11.00;99.90
39525;DHT22;25203;50.754;6.978;2023-02-18T13:41:40;11.10;99.90
39525;DHT22;25203;50.754;6.978;2023-02-18T13:43:41;11.10;99.90
39525;DHT22;25203;50.754;6.978;2023-02-18T13:45:47;11.10;99.90
39525;DHT22;25203;50.754;6.978;2023-02-18T13:48:01;11.10;99.90
39525;DHT22;25203;50.754;6.978;2023-02-18T13:52:21;11.10;99.90
39525;DHT22;25203;50.754;6.978;2023-02-18T13:54:27;11.20;99.90
39525;DHT22;25203;50.754;6.978;2023-02-18T13:56:32;11.20;99.90
39525;DHT22;25203;50.754;6.978;2023-02-18T13:58:42;11.20;99.90
39525;DHT22;25203;50.754;6.978;2023-02-18T14:00:51;11.20;99.90
39525;DHT22;25203;50.754;6.978;2023-02-18T14:02:58;11.20;99.90
39525;DHT22;25203;50.754;6.978;2023-02-18T14:11:23;11.20;99.90
39525;DHT22;25203;50.754;6.978;2023-02-18T14:13:38;11.20;99.90
39525;DHT22;25203;50.754;6.978;2023-02-18T14:15:53;11.30;99.90
39525;DHT22;25203;50.754;6.978;2023-02-18T14:22:36;11.30;99.90
39525;DHT22;25203;50.754;6.978;2023-02-18T14:24:47;11.30;99.90
39525;DHT22;25203;50.754;6.978;2023-02-18T14:26:48;11.30;99.90
39525;DHT22;25203;50.754;6.978;2023-02-18T14:28:56;11.30;99.90
39525;DHT22;25203;50.754;6.978;2023-02-18T14:31:27;11.40;99.90
39525;DHT22;25203;50.754;6.978;2023-02-18T14:33:34;11.30;99.90
39525;DHT22;25203;50.754;6.978;2023-02-18T14:35:55;11.30;99.90
39525;DHT22;25203;50.754;6.978;2023-02-18T14:50:03;11.10;99.90
39525;DHT22;25203;50.754;6.978;2023-02-18T14:52:08;11.10;99.90
39525;DHT22;25203;50.754;6.978;2023-02-18T14:54:14;11.10;99.90
39525;DHT22;25203;50.754;6.978;2023-02-18T14:56:17;11.10;99.90
39525;DHT22;25203;50.754;6.978;2023-02-18T15:00:33;11.20;99.90
39525;DHT22;25203;50.754;6.978;2023-02-18T15:02:36;11.20;99.90
39525;DHT22;25203;50.754;6.978;2023-02-18T15:04:37;11.20;99.90
39525;DHT22;25203;50.754;6.978;2023-02-18T15:06:38;11.30;99.90
39525;DHT22;25203;50.754;6.978;2023-02-18T15:08:39;11.30;99.90
39525;DHT22;25203;50.754;6.978;2023-02-18T15:11:06;11.30;99.90
39525;DHT22;25203;50.754;6.978;2023-02-18T15:13:18;11.30;99.90